sensor_id;sensor_type;location;lat;lon;timestamp;P1;durP1;ratioP1;P2;durP2;ratioP2
75209;SDS011;63796;53.136;14.882;2023-02-11T00:01:11;29.90;;;12.20;;
75209;SDS011;63796;53.136;14.882;2023-02-11T00:03:39;58.20;;;21.60;;
75209;SDS011;63796;53.136;14.882;2023-02-11T00:06:07;42.80;;;16.00;;
75209;SDS011;63796;53.136;14.882;2023-02-11T00:08:38;54.50;;;20.80;;
75209;SDS011;63796;53.136;14.882;2023-02-11T00:11:05;50.00;;;18.00;;
75209;SDS011;63796;53.136;14.882;2023-02-11T00:13:33;42.60;;;15.70;;
75209;SDS011;63796;53.136;14.882;2023-02-11T00:16:14;34.40;;;11.70;;
75209;SDS011;63796;53.136;14.882;2023-02-11T00:18:43;26.70;;;10.40;;
75209;SDS011;63796;53.136;14.882;2023-02-11T00:21:17;32.90;;;11.50;;
75209;SDS011;63796;53.136;14.882;2023-02-11T00:23:45;28.30;;;11.80;;
75209;SDS011;63796;53.136;14.882;2023-02-11T00:26:21;28.40;;;11.50;;
75209;SDS011;63796;53.136;14.882;2023-02-11T00:28:50;31.90;;;12.60;;
75209;SDS011;63796;53.136;14.882;2023-02-11T00:31:19;28.30;;;10.90;;
75209;SDS011;63796;53.136;14.882;2023-02-11T00:33:47;29.80;;;11.70;;
75209;SDS011;63796;53.136;14.882;2023-02-11T00:36:17;29.20;;;9.80;;
75209;SDS011;63796;53.136;14.882;2023-02-11T00:38:46;27.10;;;11.70;;
75209;SDS011;63796;53.136;14.882;2023-02-11T00:41:13;58.10;;;16.70;;
75209;SDS011;63796;53.136;14.882;2023-02-11T00:43:41;53.80;;;16.20;;
75209;SDS011;63796;53.136;14.882;2023-02-11T00:46:09;56.30;;;16.50;;
75209;SDS011;63796;53.136;14.882;2023-02-11T00:48:36;39.20;;;13.20;;
75209;SDS011;63796;53.136;14.882;2023-02-11T00:51:04;60.80;;;19.40;;
75209;SDS011;63796;53.136;14.882;2023-02-11T00:53:32;84.70;;;23.30;;
75209;SDS011;63796;53.136;14.882;2023-02-11T00:55:59;81.00;;;24.00;;
75209;SDS011;63796;53.136;14.882;2023-02-11T00:58:27;40.30;;;14.10;;
75209;SDS011;63796;53.136;14.882;2023-02-11T01:00:57;73.30;;;21.40;;
75209;SDS011;63796;53.136;14.882;2023-02-11T01:03:25;64.70;;;20.40;;
75209;SDS011;63796;53.136;14.882;2023-02-11T01:05:53;59.00;;;18.60;;
75209;SDS011;63796;53.136;14.882;2023-02-11T01:08:20;43.90;;;17.70;;
75209;SDS011;63796;53.136;14.882;2023-02-11T01:10:58;66.20;;;21.60;;
75209;SDS011;63796;53.136;14.882;2023-02-11T01:13:26;73.90;;;21.40;;
75209;SDS011;63796;53.136;14.882;2023-02-11T01:15:54;65.80;;;23.90;;
75209;SDS011;63796;53.136;14.882;2023-02-11T01:18:22;45.20;;;15.90;;
75209;SDS011;63796;53.136;14.882;2023-02-11T01:20:51;61.00;;;20.10;;
75209;SDS011;63796;53.136;14.882;2023-02-11T01:23:19;44.70;;;15.80;;
75209;SDS011;63796;53.136;14.882;2023-02-11T01:25:46;46.80;;;17.50;;
75209;SDS011;63796;53.136;14.882;2023-02-11T01:28:27;62.10;;;21.00;;
75209;SDS011;63796;53.136;14.882;2023-02-11T01:30:55;45.30;;;18.10;;
75209;SDS011;63796;53.136;14.882;2023-02-11T01:33:23;48.20;;;18.30;;
75209;SDS011;63796;53.136;14.882;2023-02-11T01:35:51;50.70;;;19.10;;
75209;SDS011;63796;53.136;14.882;2023-02-11T01:38:24;55.20;;;20.70;;
75209;SDS011;63796;53.136;14.882;2023-02-11T01:41:01;46.70;;;19.20;;
75209;SDS011;63796;53.136;14.882;2023-02-11T01:43:37;49.50;;;19.80;;
75209;SDS011;63796;53.136;14.882;2023-02-11T01:46:13;45.60;;;17.50;;
75209;SDS011;63796;53.136;14.882;2023-02-11T01:48:46;41.40;;;16.50;;
75209;SDS011;63796;53.136;14.882;2023-02-11T01:53:42;43.10;;;17.40;;
75209;SDS011;63796;53.136;14.882;2023-02-11T01:56:29;41.50;;;15.50;;
75209;SDS011;63796;53.136;14.882;2023-02-11T01:59:30;49.10;;;19.30;;
75209;SDS011;63796;53.136;14.882;2023-02-11T02:02:02;52.80;;;18.30;;
75209;SDS011;63796;53.136;14.882;2023-02-11T02:04:37;42.80;;;15.60;;
75209;SDS011;63796;53.136;14.882;2023-02-11T02:07:10;46.50;;;16.00;;
75209;SDS011;63796;53.136;14.882;2023-02-11T02:09:42;49.90;;;19.50;;
75209;SDS011;63796;53.136;14.882;2023-02-11T02:12:10;47.40;;;19.30;;
75209;SDS011;63796;53.136;14.882;2023-02-11T02:14:41;48.70;;;19.40;;
75209;SDS011;63796;53.136;14.882;2023-02-11T02:17:13;39.60;;;15.20;;
75209;SDS011;63796;53.136;14.882;2023-02-11T02:23:19;47.60;;;18.40;;
75209;SDS011;63796;53.136;14.882;2023-02-11T02:34:38;44.00;;;16.70;;
75209;SDS011;63796;53.136;14.882;2023-02-11T02:37:20;52.30;;;19.20;;
75209;SDS011;63796;53.136;14.882;2023-02-11T02:39:54;73.90;;;24.20;;
75209;SDS011;63796;53.136;14.882;2023-02-11T02:42:23;69.20;;;22.10;;
75209;SDS011;63796;53.136;14.882;2023-02-11T02:44:54;57.60;;;19.70;;
75209;SDS011;63796;53.136;14.882;2023-02-11T02:47:22;57.00;;;20.90;;
75209;SDS011;63796;53.136;14.882;2023-02-11T02:49:49;45.30;;;17.00;;
75209;SDS011;63796;53.136;14.882;2023-02-11T02:52:55;46.80;;;19.40;;
75209;SDS011;63796;53.136;14.882;2023-02-11T02:58:32;47.60;;;17.60;;
75209;SDS011;63796;53.136;14.882;2023-02-11T03:01:20;44.30;;;18.30;;
75209;SDS011;63796;53.136;14.882;2023-02-11T03:04:39;42.70;;;18.00;;
75209;SDS011;63796;53.136;14.882;2023-02-11T03:06:53;40.90;;;17.70;;
75209;SDS011;63796;53.136;14.882;2023-02-11T03:09:41;45.10;;;18.10;;
75209;SDS011;63796;53.136;14.882;2023-02-11T03:12:11;44.70;;;16.20;;
75209;SDS011;63796;53.136;14.882;2023-02-11T03:14:40;42.50;;;16.20;;
75209;SDS011;63796;53.136;14.882;2023-02-11T03:17:09;36.80;;;13.80;;
75209;SDS011;63796;53.136;14.882;2023-02-11T03:19:39;44.70;;;16.80;;
75209;SDS011;63796;53.136;14.882;2023-02-11T03:22:12;46.00;;;18.80;;
75209;SDS011;63796;53.136;14.882;2023-02-11T03:24:43;46.10;;;18.40;;
75209;SDS011;63796;53.136;14.882;2023-02-11T03:27:20;51.30;;;19.60;;
75209;SDS011;63796;53.136;14.882;2023-02-11T03:30:03;41.40;;;17.20;;
75209;SDS011;63796;53.136;14.882;2023-02-11T03:32:36;43.40;;;17.80;;
75209;SDS011;63796;53.136;14.882;2023-02-11T03:35:18;47.80;;;19.60;;
75209;SDS011;63796;53.136;14.882;2023-02-11T03:37:57;48.60;;;19.00;;
75209;SDS011;63796;53.136;14.882;2023-02-11T03:40:31;49.90;;;19.60;;
75209;SDS011;63796;53.136;14.882;2023-02-11T03:43:12;55.40;;;20.60;;
75209;SDS011;63796;53.136;14.882;2023-02-11T03:45:44;60.90;;;22.10;;
75209;SDS011;63796;53.136;14.882;2023-02-11T03:48:25;55.90;;;21.20;;
75209;SDS011;63796;53.136;14.882;2023-02-11T03:50:55;52.10;;;21.10;;
75209;SDS011;63796;53.136;14.882;2023-02-11T03:53:23;57.20;;;21.50;;
75209;SDS011;63796;53.136;14.882;2023-02-11T03:55:51;45.00;;;17.90;;
75209;SDS011;63796;53.136;14.882;2023-02-11T03:58:20;41.40;;;18.00;;
75209;SDS011;63796;53.136;14.882;2023-02-11T04:00:48;53.70;;;21.10;;
75209;SDS011;63796;53.136;14.882;2023-02-11T04:03:15;59.60;;;23.40;;
75209;SDS011;63796;53.136;14.882;2023-02-11T04:05:43;59.00;;;22.90;;
75209;SDS011;63796;53.136;14.882;2023-02-11T04:08:10;51.20;;;19.80;;
75209;SDS011;63796;53.136;14.882;2023-02-11T04:10:38;53.80;;;20.80;;
75209;SDS011;63796;53.136;14.882;2023-02-11T04:13:05;49.50;;;20.90;;
75209;SDS011;63796;53.136;14.882;2023-02-11T04:15:32;49.80;;;19.60;;
75209;SDS011;63796;53.136;14.882;2023-02-11T04:18:00;65.70;;;24.10;;
75209;SDS011;63796;53.136;14.882;2023-02-11T04:20:28;62.80;;;22.20;;
75209;SDS011;63796;53.136;14.882;2023-02-11T04:22:55;56.60;;;23.40;;
75209;SDS011;63796;53.136;14.882;2023-02-11T04:25:23;64.10;;;23.60;;
75209;SDS011;63796;53.136;14.882;2023-02-11T04:27:52;55.80;;;22.90;;
75209;SDS011;63796;53.136;14.882;2023-02-11T04:30:19;66.70;;;23.90;;
75209;SDS011;63796;53.136;14.882;2023-02-11T04:32:46;58.00;;;23.60;;
75209;SDS011;63796;53.136;14.882;2023-02-11T04:35:14;66.50;;;23.50;;
75209;SDS011;63796;53.136;14.882;2023-02-11T04:37:42;62.00;;;25.00;;
75209;SDS011;63796;53.136;14.882;2023-02-11T04:40:09;52.20;;;22.00;;
75209;SDS011;63796;53.136;14.882;2023-02-11T04:42:36;54.30;;;20.00;;
75209;SDS011;63796;53.136;14.882;2023-02-11T04:45:04;61.40;;;23.70;;
75209;SDS011;63796;53.136;14.882;2023-02-11T04:47:33;64.80;;;23.90;;
75209;SDS011;63796;53.136;14.882;2023-02-11T04:50:00;63.60;;;21.50;;
75209;SDS011;63796;53.136;14.882;2023-02-11T04:52:27;60.30;;;23.10;;
75209;SDS011;63796;53.136;14.882;2023-02-11T04:54:55;60.90;;;23.00;;
75209;SDS011;63796;53.136;14.882;2023-02-11T04:57:22;62.80;;;24.40;;
75209;SDS011;63796;53.136;14.882;2023-02-11T04:59:49;47.90;;;20.00;;
75209;SDS011;63796;53.136;14.882;2023-02-11T05:02:16;46.40;;;19.60;;
75209;SDS011;63796;53.136;14.882;2023-02-11T05:04:44;54.70;;;22.70;;
75209;SDS011;63796;53.136;14.882;2023-02-11T05:07:11;50.90;;;21.40;;
75209;SDS011;63796;53.136;14.882;2023-02-11T05:09:38;53.30;;;21.40;;
75209;SDS011;63796;53.136;14.882;2023-02-11T05:12:06;55.00;;;22.20;;
75209;SDS011;63796;53.136;14.882;2023-02-11T05:14:33;44.10;;;18.90;;
75209;SDS011;63796;53.136;14.882;2023-02-11T05:17:00;47.50;;;19.90;;
75209;SDS011;63796;53.136;14.882;2023-02-11T05:19:28;51.70;;;22.40;;
75209;SDS011;63796;53.136;14.882;2023-02-11T05:21:56;46.90;;;20.70;;
75209;SDS011;63796;53.136;14.882;2023-02-11T05:24:30;47.10;;;19.60;;
75209;SDS011;63796;53.136;14.882;2023-02-11T05:26:58;47.60;;;18.90;;
75209;SDS011;63796;53.136;14.882;2023-02-11T05:29:26;52.90;;;21.40;;
75209;SDS011;63796;53.136;14.882;2023-02-11T05:31:53;44.50;;;19.70;;
75209;SDS011;63796;53.136;14.882;2023-02-11T05:34:20;50.80;;;21.40;;
75209;SDS011;63796;53.136;14.882;2023-02-11T05:36:48;48.40;;;21.30;;
75209;SDS011;63796;53.136;14.882;2023-02-11T05:39:15;49.20;;;20.40;;
75209;SDS011;63796;53.136;14.882;2023-02-11T05:41:42;51.90;;;22.30;;
75209;SDS011;63796;53.136;14.882;2023-02-11T05:44:09;55.80;;;20.90;;
75209;SDS011;63796;53.136;14.882;2023-02-11T05:46:37;47.70;;;21.10;;
75209;SDS011;63796;53.136;14.882;2023-02-11T05:49:04;53.20;;;23.00;;
75209;SDS011;63796;53.136;14.882;2023-02-11T05:51:31;48.60;;;21.70;;
75209;SDS011;63796;53.136;14.882;2023-02-11T05:53:58;51.90;;;21.70;;
75209;SDS011;63796;53.136;14.882;2023-02-11T05:56:26;47.80;;;20.50;;
75209;SDS011;63796;53.136;14.882;2023-02-11T05:58:53;116.20;;;51.20;;
75209;SDS011;63796;53.136;14.882;2023-02-11T06:01:20;50.60;;;22.30;;
75209;SDS011;63796;53.136;14.882;2023-02-11T06:03:47;53.70;;;22.00;;
75209;SDS011;63796;53.136;14.882;2023-02-11T06:06:16;59.70;;;24.20;;
75209;SDS011;63796;53.136;14.882;2023-02-11T06:08:43;58.70;;;24.10;;
75209;SDS011;63796;53.136;14.882;2023-02-11T06:11:13;52.80;;;21.50;;
75209;SDS011;63796;53.136;14.882;2023-02-11T06:13:41;52.30;;;22.50;;
75209;SDS011;63796;53.136;14.882;2023-02-11T06:16:08;46.60;;;19.90;;
75209;SDS011;63796;53.136;14.882;2023-02-11T06:18:35;55.40;;;23.30;;
75209;SDS011;63796;53.136;14.882;2023-02-11T06:21:07;44.80;;;19.30;;
75209;SDS011;63796;53.136;14.882;2023-02-11T06:23:35;50.00;;;22.00;;
75209;SDS011;63796;53.136;14.882;2023-02-11T06:26:07;53.80;;;23.70;;
75209;SDS011;63796;53.136;14.882;2023-02-11T06:28:35;51.70;;;22.10;;
75209;SDS011;63796;53.136;14.882;2023-02-11T06:31:06;51.10;;;23.10;;
75209;SDS011;63796;53.136;14.882;2023-02-11T06:33:34;50.40;;;22.30;;
75209;SDS011;63796;53.136;14.882;2023-02-11T06:36:03;55.20;;;22.10;;
75209;SDS011;63796;53.136;14.882;2023-02-11T06:38:31;53.20;;;23.40;;
75209;SDS011;63796;53.136;14.882;2023-02-11T06:40:58;47.10;;;22.50;;
75209;SDS011;63796;53.136;14.882;2023-02-11T06:43:25;53.50;;;21.10;;
75209;SDS011;63796;53.136;14.882;2023-02-11T06:45:53;52.10;;;22.40;;
75209;SDS011;63796;53.136;14.882;2023-02-11T06:48:22;51.20;;;22.90;;
75209;SDS011;63796;53.136;14.882;2023-02-11T06:50:49;49.60;;;21.70;;
75209;SDS011;63796;53.136;14.882;2023-02-11T06:53:16;47.00;;;19.20;;
75209;SDS011;63796;53.136;14.882;2023-02-11T06:55:44;44.10;;;18.70;;
75209;SDS011;63796;53.136;14.882;2023-02-11T06:58:11;50.30;;;21.70;;
75209;SDS011;63796;53.136;14.882;2023-02-11T07:00:38;50.40;;;20.80;;
75209;SDS011;63796;53.136;14.882;2023-02-11T07:03:06;56.60;;;23.60;;
75209;SDS011;63796;53.136;14.882;2023-02-11T07:05:33;47.70;;;22.00;;
75209;SDS011;63796;53.136;14.882;2023-02-11T07:08:01;51.50;;;22.60;;
75209;SDS011;63796;53.136;14.882;2023-02-11T07:10:28;51.00;;;20.80;;
75209;SDS011;63796;53.136;14.882;2023-02-11T07:12:55;50.70;;;21.10;;
75209;SDS011;63796;53.136;14.882;2023-02-11T07:15:25;51.00;;;21.60;;
75209;SDS011;63796;53.136;14.882;2023-02-11T07:17:53;50.30;;;21.70;;
75209;SDS011;63796;53.136;14.882;2023-02-11T07:20:20;50.50;;;21.20;;
75209;SDS011;63796;53.136;14.882;2023-02-11T07:22:57;48.90;;;20.90;;
75209;SDS011;63796;53.136;14.882;2023-02-11T07:25:29;49.00;;;21.20;;
75209;SDS011;63796;53.136;14.882;2023-02-11T07:27:59;51.40;;;20.80;;
75209;SDS011;63796;53.136;14.882;2023-02-11T07:30:26;50.40;;;21.30;;
75209;SDS011;63796;53.136;14.882;2023-02-11T07:32:55;44.80;;;20.70;;
75209;SDS011;63796;53.136;14.882;2023-02-11T07:35:29;46.10;;;20.50;;
75209;SDS011;63796;53.136;14.882;2023-02-11T07:37:58;52.90;;;22.00;;
75209;SDS011;63796;53.136;14.882;2023-02-11T07:40:26;47.40;;;21.40;;
75209;SDS011;63796;53.136;14.882;2023-02-11T07:42:56;47.30;;;21.30;;
75209;SDS011;63796;53.136;14.882;2023-02-11T07:45:26;47.70;;;19.60;;
75209;SDS011;63796;53.136;14.882;2023-02-11T07:48:01;45.60;;;20.90;;
75209;SDS011;63796;53.136;14.882;2023-02-11T07:50:29;56.80;;;23.00;;
75209;SDS011;63796;53.136;14.882;2023-02-11T07:53:01;55.50;;;22.80;;
75209;SDS011;63796;53.136;14.882;2023-02-11T07:55:30;55.20;;;23.50;;
75209;SDS011;63796;53.136;14.882;2023-02-11T07:57:57;55.30;;;23.00;;
75209;SDS011;63796;53.136;14.882;2023-02-11T08:00:25;55.90;;;22.40;;
75209;SDS011;63796;53.136;14.882;2023-02-11T08:02:53;54.80;;;21.90;;
75209;SDS011;63796;53.136;14.882;2023-02-11T08:05:21;46.00;;;21.80;;
75209;SDS011;63796;53.136;14.882;2023-02-11T08:07:52;47.20;;;19.70;;
75209;SDS011;63796;53.136;14.882;2023-02-11T08:10:22;46.60;;;20.10;;
75209;SDS011;63796;53.136;14.882;2023-02-11T08:12:50;49.90;;;22.10;;
75209;SDS011;63796;53.136;14.882;2023-02-11T08:15:17;47.90;;;19.70;;
75209;SDS011;63796;53.136;14.882;2023-02-11T08:17:46;58.40;;;21.60;;
75209;SDS011;63796;53.136;14.882;2023-02-11T08:20:13;52.90;;;22.70;;
75209;SDS011;63796;53.136;14.882;2023-02-11T08:22:41;48.70;;;20.00;;
75209;SDS011;63796;53.136;14.882;2023-02-11T08:25:08;59.50;;;27.30;;
75209;SDS011;63796;53.136;14.882;2023-02-11T08:27:43;52.10;;;22.70;;
75209;SDS011;63796;53.136;14.882;2023-02-11T08:30:11;45.80;;;21.50;;
75209;SDS011;63796;53.136;14.882;2023-02-11T08:32:39;60.90;;;29.70;;
75209;SDS011;63796;53.136;14.882;2023-02-11T08:35:07;65.40;;;28.00;;
75209;SDS011;63796;53.136;14.882;2023-02-11T08:37:34;60.40;;;24.80;;
75209;SDS011;63796;53.136;14.882;2023-02-11T08:40:02;55.10;;;23.20;;
75209;SDS011;63796;53.136;14.882;2023-02-11T08:42:39;59.60;;;25.80;;
75209;SDS011;63796;53.136;14.882;2023-02-11T08:45:09;70.20;;;27.60;;
75209;SDS011;63796;53.136;14.882;2023-02-11T08:47:37;77.90;;;30.70;;
75209;SDS011;63796;53.136;14.882;2023-02-11T08:50:05;73.60;;;30.10;;
75209;SDS011;63796;53.136;14.882;2023-02-11T08:52:35;72.40;;;28.60;;
75209;SDS011;63796;53.136;14.882;2023-02-11T08:55:03;59.60;;;23.90;;
75209;SDS011;63796;53.136;14.882;2023-02-11T08:57:30;56.80;;;24.00;;
75209;SDS011;63796;53.136;14.882;2023-02-11T08:59:58;72.60;;;30.60;;
75209;SDS011;63796;53.136;14.882;2023-02-11T09:02:27;63.90;;;26.50;;
75209;SDS011;63796;53.136;14.882;2023-02-11T09:04:57;61.70;;;25.30;;
75209;SDS011;63796;53.136;14.882;2023-02-11T09:07:28;55.30;;;22.70;;
75209;SDS011;63796;53.136;14.882;2023-02-11T09:09:57;60.70;;;25.10;;
75209;SDS011;63796;53.136;14.882;2023-02-11T09:12:24;68.10;;;24.60;;
75209;SDS011;63796;53.136;14.882;2023-02-11T09:14:55;56.50;;;23.20;;
75209;SDS011;63796;53.136;14.882;2023-02-11T09:20:23;67.10;;;29.10;;
75209;SDS011;63796;53.136;14.882;2023-02-11T09:22:52;87.10;;;36.20;;
75209;SDS011;63796;53.136;14.882;2023-02-11T09:25:19;76.60;;;31.80;;
75209;SDS011;63796;53.136;14.882;2023-02-11T09:27:47;82.80;;;35.10;;
75209;SDS011;63796;53.136;14.882;2023-02-11T09:30:14;94.60;;;38.80;;
75209;SDS011;63796;53.136;14.882;2023-02-11T09:32:41;101.60;;;38.20;;
75209;SDS011;63796;53.136;14.882;2023-02-11T09:35:08;98.90;;;34.20;;
75209;SDS011;63796;53.136;14.882;2023-02-11T09:37:36;80.10;;;29.70;;
75209;SDS011;63796;53.136;14.882;2023-02-11T09:40:04;91.70;;;33.40;;
75209;SDS011;63796;53.136;14.882;2023-02-11T09:43:10;113.70;;;40.80;;
75209;SDS011;63796;53.136;14.882;2023-02-11T09:45:39;97.20;;;37.40;;
75209;SDS011;63796;53.136;14.882;2023-02-11T09:48:17;111.90;;;42.60;;
75209;SDS011;63796;53.136;14.882;2023-02-11T09:50:49;78.20;;;30.60;;
75209;SDS011;63796;53.136;14.882;2023-02-11T09:53:24;64.70;;;26.80;;
75209;SDS011;63796;53.136;14.882;2023-02-11T09:55:54;88.80;;;35.70;;
75209;SDS011;63796;53.136;14.882;2023-02-11T10:06:44;59.60;;;25.50;;
75209;SDS011;63796;53.136;14.882;2023-02-11T10:20:30;82.50;;;30.40;;
75209;SDS011;63796;53.136;14.882;2023-02-11T10:23:04;59.50;;;23.60;;
75209;SDS011;63796;53.136;14.882;2023-02-11T10:25:42;66.60;;;26.10;;
75209;SDS011;63796;53.136;14.882;2023-02-11T10:28:17;83.00;;;31.90;;
75209;SDS011;63796;53.136;14.882;2023-02-11T10:30:57;51.80;;;23.20;;
75209;SDS011;63796;53.136;14.882;2023-02-11T10:33:29;47.50;;;21.70;;
75209;SDS011;63796;53.136;14.882;2023-02-11T10:35:58;72.80;;;28.40;;
75209;SDS011;63796;53.136;14.882;2023-02-11T10:38:26;58.00;;;24.90;;
75209;SDS011;63796;53.136;14.882;2023-02-11T10:40:54;53.30;;;24.10;;
75209;SDS011;63796;53.136;14.882;2023-02-11T10:43:25;45.20;;;21.30;;
75209;SDS011;63796;53.136;14.882;2023-02-11T10:45:54;48.50;;;21.40;;
75209;SDS011;63796;53.136;14.882;2023-02-11T10:53:41;277.50;;;110.20;;
75209;SDS011;63796;53.136;14.882;2023-02-11T10:56:28;164.60;;;66.80;;
75209;SDS011;63796;53.136;14.882;2023-02-11T11:01:45;227.80;;;94.40;;
75209;SDS011;63796;53.136;14.882;2023-02-11T11:06:53;93.70;;;51.90;;
75209;SDS011;63796;53.136;14.882;2023-02-11T11:09:28;67.90;;;35.60;;
75209;SDS011;63796;53.136;14.882;2023-02-11T11:11:56;60.30;;;29.30;;
75209;SDS011;63796;53.136;14.882;2023-02-11T11:14:24;47.00;;;23.50;;
75209;SDS011;63796;53.136;14.882;2023-02-11T11:16:55;61.00;;;27.10;;
75209;SDS011;63796;53.136;14.882;2023-02-11T11:19:51;87.30;;;35.40;;
75209;SDS011;63796;53.136;14.882;2023-02-11T11:22:21;96.40;;;38.70;;
75209;SDS011;63796;53.136;14.882;2023-02-11T11:24:49;117.50;;;43.80;;
75209;SDS011;63796;53.136;14.882;2023-02-11T11:27:23;80.50;;;31.50;;
75209;SDS011;63796;53.136;14.882;2023-02-11T11:29:54;67.60;;;27.40;;
75209;SDS011;63796;53.136;14.882;2023-02-11T11:32:28;88.20;;;33.30;;
75209;SDS011;63796;53.136;14.882;2023-02-11T11:35:02;83.80;;;32.90;;
75209;SDS011;63796;53.136;14.882;2023-02-11T11:37:34;90.50;;;40.30;;
75209;SDS011;63796;53.136;14.882;2023-02-11T11:42:38;79.50;;;32.20;;
75209;SDS011;63796;53.136;14.882;2023-02-11T11:47:52;67.80;;;26.00;;
75209;SDS011;63796;53.136;14.882;2023-02-11T11:50:31;52.50;;;21.10;;
75209;SDS011;63796;53.136;14.882;2023-02-11T11:55:35;80.20;;;30.90;;
75209;SDS011;63796;53.136;14.882;2023-02-11T11:58:31;66.60;;;27.80;;
75209;SDS011;63796;53.136;14.882;2023-02-11T12:03:57;39.80;;;18.40;;
75209;SDS011;63796;53.136;14.882;2023-02-11T12:15:38;33.80;;;14.50;;
75209;SDS011;63796;53.136;14.882;2023-02-11T12:23:57;59.50;;;22.80;;
75209;SDS011;63796;53.136;14.882;2023-02-11T12:26:35;190.10;;;50.80;;
75209;SDS011;63796;53.136;14.882;2023-02-11T12:29:19;166.10;;;44.50;;
75209;SDS011;63796;53.136;14.882;2023-02-11T12:32:04;198.20;;;47.90;;
75209;SDS011;63796;53.136;14.882;2023-02-11T12:37:32;111.80;;;28.20;;
75209;SDS011;63796;53.136;14.882;2023-02-11T12:40:25;80.40;;;20.20;;
75209;SDS011;63796;53.136;14.882;2023-02-11T13:01:55;65.20;;;24.50;;
75209;SDS011;63796;53.136;14.882;2023-02-11T13:04:36;44.90;;;18.20;;
75209;SDS011;63796;53.136;14.882;2023-02-11T13:07:20;22.80;;;8.40;;
75209;SDS011;63796;53.136;14.882;2023-02-11T13:10:00;23.20;;;9.90;;
75209;SDS011;63796;53.136;14.882;2023-02-11T13:12:31;31.20;;;11.40;;
75209;SDS011;63796;53.136;14.882;2023-02-11T13:15:17;29.70;;;10.10;;
75209;SDS011;63796;53.136;14.882;2023-02-11T13:17:57;14.10;;;5.80;;
75209;SDS011;63796;53.136;14.882;2023-02-11T13:20:41;11.80;;;4.80;;
75209;SDS011;63796;53.136;14.882;2023-02-11T13:23:19;13.00;;;5.80;;
75209;SDS011;63796;53.136;14.882;2023-02-11T13:25:58;8.80;;;4.00;;
75209;SDS011;63796;53.136;14.882;2023-02-11T13:31:02;7.10;;;3.50;;
75209;SDS011;63796;53.136;14.882;2023-02-11T13:33:35;6.40;;;3.20;;
75209;SDS011;63796;53.136;14.882;2023-02-11T13:38:31;5.00;;;3.10;;
75209;SDS011;63796;53.136;14.882;2023-02-11T13:41:18;4.20;;;2.50;;
75209;SDS011;63796;53.136;14.882;2023-02-11T13:49:32;5.70;;;3.30;;
75209;SDS011;63796;53.136;14.882;2023-02-11T13:52:04;7.90;;;3.30;;
75209;SDS011;63796;53.136;14.882;2023-02-11T13:54:35;6.80;;;3.00;;
75209;SDS011;63796;53.136;14.882;2023-02-11T13:59:49;6.30;;;3.10;;
75209;SDS011;63796;53.136;14.882;2023-02-11T14:02:36;7.80;;;3.20;;
75209;SDS011;63796;53.136;14.882;2023-02-11T14:05:32;6.20;;;2.70;;
75209;SDS011;63796;53.136;14.882;2023-02-11T14:08:20;9.10;;;4.50;;
75209;SDS011;63796;53.136;14.882;2023-02-11T14:16:22;8.20;;;3.10;;
75209;SDS011;63796;53.136;14.882;2023-02-11T14:19:03;5.90;;;2.60;;
75209;SDS011;63796;53.136;14.882;2023-02-11T14:21:41;9.30;;;3.00;;
75209;SDS011;63796;53.136;14.882;2023-02-11T14:26:45;5.10;;;2.40;;
75209;SDS011;63796;53.136;14.882;2023-02-11T14:32:00;7.60;;;2.30;;
75209;SDS011;63796;53.136;14.882;2023-02-11T14:40:17;5.60;;;2.60;;
75209;SDS011;63796;53.136;14.882;2023-02-11T14:42:50;4.30;;;2.40;;
75209;SDS011;63796;53.136;14.882;2023-02-11T14:45:22;3.50;;;2.20;;
75209;SDS011;63796;53.136;14.882;2023-02-11T14:53:16;9.10;;;3.30;;
75209;SDS011;63796;53.136;14.882;2023-02-11T14:55:51;5.80;;;3.10;;
75209;SDS011;63796;53.136;14.882;2023-02-11T14:58:21;3.80;;;2.20;;
75209;SDS011;63796;53.136;14.882;2023-02-11T15:00:49;5.30;;;2.70;;
75209;SDS011;63796;53.136;14.882;2023-02-11T15:03:53;5.20;;;2.70;;
75209;SDS011;63796;53.136;14.882;2023-02-11T15:06:30;10.60;;;3.40;;
75209;SDS011;63796;53.136;14.882;2023-02-11T15:11:38;6.80;;;2.80;;
75209;SDS011;63796;53.136;14.882;2023-02-11T15:14:10;5.90;;;2.50;;
75209;SDS011;63796;53.136;14.882;2023-02-11T15:16:43;7.30;;;3.00;;
75209;SDS011;63796;53.136;14.882;2023-02-11T15:19:30;45.80;;;14.10;;
75209;SDS011;63796;53.136;14.882;2023-02-11T15:22:05;61.30;;;17.60;;
75209;SDS011;63796;53.136;14.882;2023-02-11T15:24:34;39.50;;;12.10;;
75209;SDS011;63796;53.136;14.882;2023-02-11T15:27:12;21.00;;;6.40;;
75209;SDS011;63796;53.136;14.882;2023-02-11T15:29:48;38.20;;;11.20;;
75209;SDS011;63796;53.136;14.882;2023-02-11T15:34:47;43.90;;;10.90;;
75209;SDS011;63796;53.136;14.882;2023-02-11T15:37:23;47.50;;;14.90;;
75209;SDS011;63796;53.136;14.882;2023-02-11T15:39:52;14.30;;;4.80;;
75209;SDS011;63796;53.136;14.882;2023-02-11T15:42:28;18.50;;;5.30;;
75209;SDS011;63796;53.136;14.882;2023-02-11T15:47:47;28.60;;;10.40;;
75209;SDS011;63796;53.136;14.882;2023-02-11T15:50:29;19.00;;;7.40;;
75209;SDS011;63796;53.136;14.882;2023-02-11T15:53:00;21.00;;;8.00;;
75209;SDS011;63796;53.136;14.882;2023-02-11T15:55:28;10.00;;;4.30;;
75209;SDS011;63796;53.136;14.882;2023-02-11T15:58:01;13.10;;;5.20;;
75209;SDS011;63796;53.136;14.882;2023-02-11T16:00:35;19.20;;;6.80;;
75209;SDS011;63796;53.136;14.882;2023-02-11T16:03:04;15.10;;;6.10;;
75209;SDS011;63796;53.136;14.882;2023-02-11T16:05:36;30.80;;;8.40;;
75209;SDS011;63796;53.136;14.882;2023-02-11T16:08:25;26.40;;;7.80;;
75209;SDS011;63796;53.136;14.882;2023-02-11T16:11:01;38.00;;;13.60;;
75209;SDS011;63796;53.136;14.882;2023-02-11T16:13:30;16.70;;;6.60;;
75209;SDS011;63796;53.136;14.882;2023-02-11T16:16:04;28.00;;;8.10;;
75209;SDS011;63796;53.136;14.882;2023-02-11T16:18:49;21.80;;;6.90;;
75209;SDS011;63796;53.136;14.882;2023-02-11T16:21:40;16.50;;;5.20;;
75209;SDS011;63796;53.136;14.882;2023-02-11T16:24:25;49.80;;;14.10;;
75209;SDS011;63796;53.136;14.882;2023-02-11T16:26:56;15.70;;;5.70;;
75209;SDS011;63796;53.136;14.882;2023-02-11T16:29:31;23.50;;;8.10;;
75209;SDS011;63796;53.136;14.882;2023-02-11T16:32:28;19.30;;;5.10;;
75209;SDS011;63796;53.136;14.882;2023-02-11T16:34:58;17.80;;;6.40;;
75209;SDS011;63796;53.136;14.882;2023-02-11T16:37:26;20.90;;;7.40;;
75209;SDS011;63796;53.136;14.882;2023-02-11T16:39:55;17.00;;;6.50;;
75209;SDS011;63796;53.136;14.882;2023-02-11T16:42:22;27.90;;;10.00;;
75209;SDS011;63796;53.136;14.882;2023-02-11T16:44:50;19.80;;;6.60;;
75209;SDS011;63796;53.136;14.882;2023-02-11T16:47:26;15.90;;;5.50;;
75209;SDS011;63796;53.136;14.882;2023-02-11T16:49:54;18.20;;;7.20;;
75209;SDS011;63796;53.136;14.882;2023-02-11T16:52:23;11.00;;;3.60;;
75209;SDS011;63796;53.136;14.882;2023-02-11T16:54:50;10.10;;;3.80;;
75209;SDS011;63796;53.136;14.882;2023-02-11T16:57:24;12.40;;;3.40;;
75209;SDS011;63796;53.136;14.882;2023-02-11T16:59:56;7.10;;;3.00;;